createdAt,value
2022-10-28T00:00:32.804Z,10.60
2022-10-28T00:03:02.889Z,10.90
2022-10-28T00:05:33.533Z,10.86
2022-10-28T00:08:00.418Z,10.80
2022-10-28T00:10:27.306Z,10.83
2022-10-28T00:12:54.205Z,10.59
2022-10-28T00:15:21.097Z,10.61
2022-10-28T00:17:47.988Z,10.67
2022-10-28T00:20:15.979Z,10.65
2022-10-28T00:22:43.333Z,10.57
2022-10-28T00:25:10.952Z,10.42
2022-10-28T00:27:37.823Z,10.33
2022-10-28T00:30:05.086Z,10.25
2022-10-28T00:32:32.454Z,10.24
2022-10-28T00:34:59.371Z,10.42
2022-10-28T00:37:26.233Z,10.43
2022-10-28T00:39:53.263Z,10.40
2022-10-28T00:42:22.287Z,10.41
2022-10-28T00:44:58.279Z,10.43
2022-10-28T00:47:37.659Z,10.39
2022-10-28T00:50:04.533Z,10.42
2022-10-28T00:52:32.638Z,10.35
2022-10-28T00:55:01.813Z,10.37
2022-10-28T00:57:35.402Z,10.40
2022-10-28T01:00:05.493Z,10.42
2022-10-28T01:02:37.840Z,10.09
2022-10-28T01:05:04.978Z,9.84
2022-10-28T01:07:31.911Z,9.86
2022-10-28T01:09:58.801Z,9.97
2022-10-28T01:12:41.699Z,9.69
2022-10-28T01:15:13.359Z,9.95
2022-10-28T01:17:55.468Z,9.93
2022-10-28T01:20:25.346Z,9.90
2022-10-28T01:23:05.822Z,9.90
2022-10-28T01:25:41.717Z,9.92
2022-10-28T01:28:33.016Z,9.91
2022-10-28T01:31:14.819Z,9.87
2022-10-28T01:34:02.935Z,9.59
2022-10-28T01:36:47.858Z,9.76
2022-10-28T01:39:39.775Z,9.68
2022-10-28T01:42:26.829Z,9.72
2022-10-28T01:45:10.476Z,9.52
2022-10-28T01:47:53.519Z,9.37
2022-10-28T01:50:27.075Z,9.40
2022-10-28T01:52:58.287Z,9.52
2022-10-28T01:55:37.610Z,9.38
2022-10-28T01:58:07.347Z,9.59
2022-10-28T02:00:37.060Z,9.64
2022-10-28T02:03:07.967Z,9.62
2022-10-28T02:05:45.771Z,9.44
2022-10-28T02:08:18.737Z,9.59
2022-10-28T02:11:00.911Z,9.63
2022-10-28T02:13:37.079Z,9.43
2022-10-28T02:16:34.735Z,9.57
2022-10-28T02:19:01.629Z,9.60
2022-10-28T02:21:44.923Z,9.46
2022-10-28T02:24:36.864Z,9.70
2022-10-28T02:27:29.820Z,9.69
2022-10-28T02:30:07.654Z,9.76
2022-10-28T02:32:40.598Z,9.61
2022-10-28T02:35:14.326Z,9.77
2022-10-28T02:37:44.116Z,9.75
2022-10-28T02:40:18.692Z,9.73
2022-10-28T02:43:03.569Z,9.49
2022-10-28T02:45:36.576Z,9.47
2022-10-28T02:48:27.293Z,9.54
2022-10-28T02:51:00.726Z,9.42
2022-10-28T02:53:33.448Z,9.38
2022-10-28T02:56:04.319Z,9.64
2022-10-28T02:58:40.178Z,9.68
2022-10-28T03:01:07.683Z,9.46
2022-10-28T03:03:34.605Z,9.57
2022-10-28T03:06:01.470Z,9.37
2022-10-28T03:08:28.362Z,9.65
2022-10-28T03:10:55.236Z,9.63
2022-10-28T03:13:22.140Z,9.58
2022-10-28T03:15:48.980Z,9.42
2022-10-28T03:18:15.923Z,9.53
2022-10-28T03:20:42.909Z,9.48
2022-10-28T03:23:09.757Z,9.59
2022-10-28T03:25:36.738Z,9.62
2022-10-28T03:28:03.892Z,9.46
2022-10-28T03:30:30.853Z,9.44
2022-10-28T03:32:57.814Z,9.41
2022-10-28T03:35:24.722Z,9.63
2022-10-28T03:37:51.735Z,9.44
2022-10-28T03:40:18.685Z,9.53
2022-10-28T03:42:45.890Z,9.04
2022-10-28T03:45:12.827Z,9.14
2022-10-28T03:47:40.253Z,9.56
2022-10-28T03:50:07.603Z,9.32
2022-10-28T03:52:34.510Z,9.46
2022-10-28T03:55:01.450Z,9.55
2022-10-28T03:57:31.785Z,9.55
2022-10-28T03:59:58.725Z,9.51
2022-10-28T04:02:26.765Z,9.21
2022-10-28T04:04:53.795Z,9.51
2022-10-28T04:07:20.813Z,9.28
2022-10-28T04:09:51.430Z,9.64
2022-10-28T04:12:18.803Z,9.37
2022-10-28T04:14:45.764Z,9.70
2022-10-28T04:17:12.685Z,9.64
2022-10-28T04:19:39.556Z,9.59
2022-10-28T04:22:06.608Z,9.74
2022-10-28T04:24:33.576Z,9.61
2022-10-28T04:27:00.537Z,9.90
2022-10-28T04:29:27.418Z,9.74
2022-10-28T04:31:54.229Z,9.89
2022-10-28T04:34:21.134Z,9.97
2022-10-28T04:36:48.099Z,9.78
2022-10-28T04:39:15.063Z,9.90
2022-10-28T04:41:41.882Z,9.89
2022-10-28T04:44:10.290Z,9.99
2022-10-28T04:46:37.320Z,9.86
2022-10-28T04:49:04.312Z,10.03
2022-10-28T04:51:31.289Z,10.17
2022-10-28T04:53:58.199Z,10.12
2022-10-28T04:56:25.111Z,9.73
2022-10-28T04:58:51.962Z,9.85
2022-10-28T05:01:18.897Z,10.09
2022-10-28T05:03:45.824Z,9.95
2022-10-28T05:06:12.742Z,10.04
2022-10-28T05:08:39.592Z,9.92
2022-10-28T05:11:06.517Z,9.95
2022-10-28T05:13:33.497Z,9.86
2022-10-28T05:16:00.384Z,9.99
2022-10-28T05:18:27.392Z,9.79
2022-10-28T05:20:55.381Z,9.97
2022-10-28T05:23:25.840Z,10.08
2022-10-28T05:25:54.155Z,10.21
2022-10-28T05:28:22.010Z,10.27
2022-10-28T05:30:48.966Z,10.17
2022-10-28T05:33:15.843Z,10.39
2022-10-28T05:35:42.658Z,10.39
2022-10-28T05:38:09.571Z,10.18
2022-10-28T05:40:36.726Z,10.03
2022-10-28T05:43:04.387Z,10.02
2022-10-28T05:45:31.839Z,10.08
2022-10-28T05:47:58.784Z,10.22
2022-10-28T05:50:25.796Z,10.04
2022-10-28T05:52:54.962Z,10.15
2022-10-28T05:55:24.138Z,10.32
2022-10-28T05:57:53.215Z,10.40
2022-10-28T06:00:23.132Z,10.51
2022-10-28T06:02:50.245Z,10.48
2022-10-28T06:05:17.368Z,10.42
2022-10-28T06:07:44.380Z,10.41
2022-10-28T06:10:12.004Z,10.57
2022-10-28T06:12:37.507Z,10.63
2022-10-28T06:15:04.870Z,10.63
2022-10-28T06:17:31.761Z,10.40
2022-10-28T06:19:58.669Z,10.59
2022-10-28T06:22:25.578Z,10.62
2022-10-28T06:24:52.493Z,10.45
2022-10-28T06:27:19.382Z,10.91
2022-10-28T06:29:46.266Z,10.77
2022-10-28T06:32:13.293Z,10.81
2022-10-28T06:34:40.250Z,10.94
2022-10-28T06:37:09.067Z,10.93
2022-10-28T06:39:38.471Z,10.90
2022-10-28T06:42:05.517Z,10.89
2022-10-28T06:44:32.456Z,10.95
2022-10-28T06:47:00.872Z,10.81
2022-10-28T06:49:29.103Z,10.87
2022-10-28T06:51:55.962Z,10.94
2022-10-28T06:54:22.878Z,10.75
2022-10-28T06:56:49.755Z,10.76
2022-10-28T06:59:16.663Z,10.67
2022-10-28T07:01:44.093Z,10.90
2022-10-28T07:04:13.332Z,10.92
2022-10-28T07:06:41.093Z,10.90
2022-10-28T07:09:09.585Z,10.98
2022-10-28T07:11:36.455Z,10.77
2022-10-28T07:14:03.485Z,10.86
2022-10-28T07:16:30.346Z,11.05
2022-10-28T07:18:57.285Z,10.31
2022-10-28T07:21:28.530Z,11.02
2022-10-28T07:23:56.371Z,10.49
2022-10-28T07:26:24.007Z,11.07
2022-10-28T07:28:51.193Z,11.06
2022-10-28T07:31:18.090Z,10.91
2022-10-28T07:33:45.032Z,11.05
2022-10-28T07:36:12.157Z,11.02
2022-10-28T07:38:39.097Z,11.08
2022-10-28T07:41:07.836Z,11.06
2022-10-28T07:43:38.965Z,11.08
2022-10-28T07:46:07.947Z,11.07
2022-10-28T07:48:36.765Z,11.35
2022-10-28T07:51:08.282Z,11.42
2022-10-28T07:53:35.187Z,11.50
2022-10-28T07:56:05.336Z,11.34
2022-10-28T07:58:32.596Z,11.67
2022-10-28T08:01:08.714Z,11.56
2022-10-28T08:03:38.976Z,11.89
2022-10-28T08:06:17.505Z,11.82
2022-10-28T08:08:46.794Z,11.85
2022-10-28T08:11:24.659Z,12.18
2022-10-28T08:13:52.601Z,12.29
2022-10-28T08:16:19.901Z,12.31
2022-10-28T08:18:46.867Z,12.28
2022-10-28T08:21:14.777Z,12.40
2022-10-28T08:23:41.896Z,12.53
2022-10-28T08:26:08.832Z,12.78
2022-10-28T08:28:35.696Z,12.58
2022-10-28T08:31:08.629Z,12.84
2022-10-28T08:33:38.132Z,12.65
2022-10-28T08:36:06.735Z,12.97
2022-10-28T08:38:34.763Z,12.89
2022-10-28T08:41:20.301Z,13.04
2022-10-28T08:44:06.007Z,13.11
2022-10-28T08:46:59.962Z,12.78
2022-10-28T08:49:27.721Z,13.22
2022-10-28T08:52:06.069Z,13.29
2022-10-28T08:54:32.901Z,13.38
2022-10-28T08:57:03.049Z,13.30
2022-10-28T08:59:35.624Z,13.62
2022-10-28T09:02:40.917Z,13.77
2022-10-28T09:05:19.493Z,13.83
2022-10-28T09:07:46.405Z,13.75
2022-10-28T09:10:18.029Z,14.03
2022-10-28T09:13:02.155Z,14.09
2022-10-28T09:16:05.807Z,14.14
2022-10-28T09:18:44.972Z,14.28
2022-10-28T09:21:30.356Z,14.34
2022-10-28T09:23:59.502Z,14.43
2022-10-28T09:26:46.561Z,14.60
2022-10-28T09:29:49.240Z,14.58
2022-10-28T09:32:43.715Z,14.85
2022-10-28T09:35:16.262Z,14.94
2022-10-28T09:37:48.535Z,15.03
2022-10-28T09:40:28.545Z,14.96
2022-10-28T09:43:27.636Z,15.20
2022-10-28T09:46:02.578Z,15.36
2022-10-28T09:48:29.256Z,15.45
2022-10-28T09:50:58.263Z,15.50
2022-10-28T09:53:33.721Z,15.60
2022-10-28T09:56:03.909Z,15.64
2022-10-28T09:58:33.120Z,15.61
2022-10-28T10:01:00.789Z,15.67
2022-10-28T10:03:27.717Z,15.75
2022-10-28T10:05:58.700Z,15.44
2022-10-28T10:08:25.686Z,15.86
2022-10-28T10:11:05.989Z,15.94
2022-10-28T10:13:39.429Z,15.94
2022-10-28T10:16:20.199Z,16.23
2022-10-28T10:18:54.777Z,15.72
2022-10-28T10:21:49.163Z,16.09
2022-10-28T10:24:36.439Z,16.36
2022-10-28T10:27:17.825Z,16.44
2022-10-28T10:29:47.591Z,16.43
2022-10-28T10:32:47.051Z,16.61
2022-10-28T10:35:13.898Z,16.66
2022-10-28T10:37:47.058Z,16.54
2022-10-28T10:40:35.499Z,16.71
2022-10-28T10:43:40.070Z,16.94
2022-10-28T10:46:18.111Z,16.90
2022-10-28T10:48:45.030Z,16.96
2022-10-28T10:51:20.773Z,17.17
2022-10-28T10:53:50.688Z,17.03
2022-10-28T10:56:30.029Z,17.30
2022-10-28T10:59:02.086Z,17.25
2022-10-28T11:01:37.003Z,17.35
2022-10-28T11:04:06.445Z,17.46
2022-10-28T11:06:43.066Z,17.29
2022-10-28T11:09:21.109Z,17.13
2022-10-28T11:11:48.332Z,17.52
2022-10-28T11:14:15.120Z,17.56
2022-10-28T11:17:03.189Z,17.57
2022-10-28T11:19:31.734Z,17.58
2022-10-28T11:22:26.179Z,17.61
2022-10-28T11:25:06.196Z,17.68
2022-10-28T11:27:59.957Z,17.43
2022-10-28T11:33:49.131Z,17.51
2022-10-28T11:36:51.107Z,17.60
2022-10-28T11:39:45.088Z,17.92
2022-10-28T11:42:41.062Z,17.92
2022-10-28T11:45:10.629Z,18.08
2022-10-28T11:48:08.537Z,18.07
2022-10-28T11:51:03.434Z,18.17
2022-10-28T11:53:42.667Z,18.07
2022-10-28T11:56:21.629Z,18.17
2022-10-28T11:59:26.173Z,18.15
2022-10-28T12:02:05.358Z,18.18
2022-10-28T12:04:50.312Z,18.20
2022-10-28T12:07:29.101Z,18.19
2022-10-28T12:10:15.153Z,18.32
2022-10-28T12:13:15.084Z,18.27
2022-10-28T12:15:57.950Z,18.29
2022-10-28T12:18:45.209Z,18.36
2022-10-28T12:24:05.559Z,18.50
2022-10-28T12:26:41.123Z,18.48
2022-10-28T12:29:24.609Z,18.42
2022-10-28T12:32:00.255Z,18.23
2022-10-28T12:34:38.772Z,18.33
2022-10-28T12:37:27.732Z,18.52
2022-10-28T12:40:05.209Z,18.56
2022-10-28T12:42:37.318Z,18.41
2022-10-28T12:45:10.563Z,18.59
2022-10-28T12:47:47.199Z,18.50
2022-10-28T12:50:32.428Z,18.61
2022-10-28T12:53:07.276Z,18.55
2022-10-28T12:55:45.203Z,18.58
2022-10-28T12:58:41.092Z,18.60
2022-10-28T13:01:12.704Z,18.68
2022-10-28T13:03:40.750Z,18.69
2022-10-28T13:06:22.624Z,18.73
2022-10-28T13:09:04.529Z,18.68
2022-10-28T13:11:59.619Z,18.65
2022-10-28T13:14:38.788Z,18.65
2022-10-28T13:17:32.695Z,18.43
2022-10-28T13:20:15.571Z,18.57
2022-10-28T13:23:21.126Z,18.67
2022-10-28T13:25:57.290Z,18.72
2022-10-28T13:28:44.251Z,18.43
2022-10-28T13:31:11.631Z,18.48
2022-10-28T13:33:45.697Z,18.48
2022-10-28T13:36:29.721Z,18.41
2022-10-28T13:39:01.913Z,18.29
2022-10-28T13:41:35.149Z,18.16
2022-10-28T13:44:11.028Z,18.19
2022-10-28T13:46:59.742Z,18.06
2022-10-28T13:49:34.551Z,17.96
2022-10-28T13:52:07.387Z,17.98
2022-10-28T13:54:58.995Z,17.84
2022-10-28T13:57:39.041Z,17.47
2022-10-28T14:03:03.357Z,17.59
2022-10-28T14:05:36.226Z,17.55
2022-10-28T14:08:06.862Z,17.49
2022-10-28T14:10:39.798Z,17.26
2022-10-28T14:15:43.353Z,17.17
2022-10-28T14:21:04.596Z,17.06
2022-10-28T14:23:34.319Z,17.00
2022-10-28T14:26:04.644Z,16.92
2022-10-28T14:28:31.678Z,16.88
2022-10-28T14:31:13.345Z,16.79
2022-10-28T14:33:43.488Z,16.72
2022-10-28T14:36:18.768Z,16.68
2022-10-28T14:38:57.775Z,16.63
2022-10-28T14:41:30.434Z,16.55
2022-10-28T14:44:25.239Z,16.36
2022-10-28T14:47:16.098Z,16.06
2022-10-28T14:50:02.035Z,16.21
2022-10-28T14:52:31.594Z,15.94
2022-10-28T14:55:02.258Z,15.75
2022-10-28T14:57:34.155Z,15.78
2022-10-28T15:00:07.571Z,15.72
2022-10-28T15:02:37.751Z,15.54
2022-10-28T15:05:13.981Z,15.81
2022-10-28T15:07:43.870Z,15.76
2022-10-28T15:10:17.534Z,15.64
2022-10-28T15:12:46.481Z,15.48
2022-10-28T15:15:20.713Z,15.53
2022-10-28T15:17:48.145Z,15.47
2022-10-28T15:20:27.660Z,15.33
2022-10-28T15:23:12.000Z,15.06
2022-10-28T15:25:38.987Z,14.69
2022-10-28T15:28:05.916Z,14.81
2022-10-28T15:30:34.950Z,14.85
2022-10-28T15:33:28.546Z,14.92
2022-10-28T15:36:09.961Z,14.47
2022-10-28T15:38:39.643Z,14.68
2022-10-28T15:41:21.584Z,14.53
2022-10-28T15:43:55.940Z,14.48
2022-10-28T15:46:24.381Z,13.97
2022-10-28T15:48:56.557Z,14.00
2022-10-28T15:51:24.166Z,14.28
2022-10-28T15:54:09.370Z,13.98
2022-10-28T15:56:57.256Z,13.92
2022-10-28T15:59:25.856Z,13.70
2022-10-28T16:01:56.429Z,13.54
2022-10-28T16:04:23.413Z,13.76
2022-10-28T16:06:55.995Z,13.57
2022-10-28T16:09:32.432Z,13.33
2022-10-28T16:12:04.607Z,13.48
2022-10-28T16:14:39.007Z,13.52
2022-10-28T16:17:15.287Z,13.46
2022-10-28T16:20:04.633Z,13.17
2022-10-28T16:22:35.609Z,13.12
2022-10-28T16:25:02.648Z,12.89
2022-10-28T16:27:32.988Z,12.92
2022-10-28T16:30:00.142Z,12.72
2022-10-28T16:32:35.384Z,12.78
2022-10-28T16:35:02.905Z,12.77
2022-10-28T16:37:32.418Z,12.76
2022-10-28T16:39:59.436Z,12.68
2022-10-28T16:42:27.362Z,12.54
2022-10-28T16:44:54.287Z,12.65
2022-10-28T16:47:24.350Z,12.33
2022-10-28T16:49:54.468Z,12.45
2022-10-28T16:52:30.108Z,12.30
2022-10-28T16:54:57.851Z,12.13
2022-10-28T16:59:51.850Z,11.91
2022-10-28T17:02:30.923Z,11.90
2022-10-28T17:04:58.657Z,12.00
2022-10-28T17:07:26.673Z,11.49
2022-10-28T17:09:53.779Z,11.44
2022-10-28T17:12:25.892Z,11.58
2022-10-28T17:14:53.331Z,11.55
2022-10-28T17:17:20.421Z,11.45
2022-10-28T17:19:47.535Z,11.14
2022-10-28T17:22:14.504Z,11.33
2022-10-28T17:24:41.558Z,11.37
2022-10-28T17:27:08.531Z,10.73
2022-10-28T17:29:35.559Z,11.16
2022-10-28T17:32:02.592Z,11.12
2022-10-28T17:34:29.527Z,11.24
2022-10-28T17:36:56.578Z,10.63
2022-10-28T17:39:26.236Z,10.47
2022-10-28T17:41:53.794Z,10.55
2022-10-28T17:44:21.220Z,10.56
2022-10-28T17:46:49.084Z,10.58
2022-10-28T17:49:16.175Z,10.25
2022-10-28T17:51:43.566Z,10.57
2022-10-28T17:54:10.856Z,10.58
2022-10-28T17:56:39.378Z,10.36
2022-10-28T17:59:06.313Z,10.61
2022-10-28T18:01:35.089Z,10.52
2022-10-28T18:04:03.801Z,10.46
2022-10-28T18:06:30.723Z,10.62
2022-10-28T18:08:58.446Z,10.74
2022-10-28T18:11:26.639Z,10.41
2022-10-28T18:13:55.981Z,10.14
2022-10-28T18:16:27.631Z,10.59
2022-10-28T18:18:55.633Z,10.39
2022-10-28T18:21:24.578Z,10.43
2022-10-28T18:23:57.194Z,10.50
2022-10-28T18:26:24.065Z,10.43
2022-10-28T18:28:50.926Z,10.48
2022-10-28T18:31:19.995Z,10.70
2022-10-28T18:33:47.558Z,10.76
2022-10-28T18:36:22.793Z,10.76
2022-10-28T18:38:51.010Z,10.70
2022-10-28T18:41:20.195Z,10.66
2022-10-28T18:43:47.471Z,10.51
2022-10-28T18:46:14.665Z,10.70
2022-10-28T18:48:41.725Z,10.71
2022-10-28T18:51:12.141Z,10.68
2022-10-28T18:53:42.020Z,10.63
2022-10-28T18:56:14.559Z,10.55
2022-10-28T18:58:41.817Z,10.28
2022-10-28T19:01:23.832Z,10.25
2022-10-28T19:03:58.774Z,9.87
2022-10-28T19:06:27.505Z,10.06
2022-10-28T19:08:56.357Z,10.00
2022-10-28T19:11:30.275Z,9.95
2022-10-28T19:14:02.407Z,9.97
2022-10-28T19:16:31.788Z,10.06
2022-10-28T19:18:59.856Z,10.07
2022-10-28T19:21:28.003Z,10.01
2022-10-28T19:23:55.518Z,9.94
2022-10-28T19:26:23.218Z,10.21
2022-10-28T19:28:51.638Z,10.25
2022-10-28T19:31:21.897Z,10.27
2022-10-28T19:33:49.236Z,10.26
2022-10-28T19:36:21.449Z,10.12
2022-10-28T19:38:49.993Z,10.26
2022-10-28T19:41:19.504Z,10.13
2022-10-28T19:43:47.153Z,10.02
2022-10-28T19:46:18.536Z,9.90
2022-10-28T19:48:50.552Z,9.87
2022-10-28T19:51:26.812Z,9.81
2022-10-28T19:53:56.210Z,9.76
2022-10-28T19:56:23.622Z,9.83
2022-10-28T19:58:58.599Z,9.65
2022-10-28T20:01:28.011Z,9.71
2022-10-28T20:03:56.263Z,9.91
2022-10-28T20:06:26.323Z,9.67
2022-10-28T20:08:53.662Z,9.65
2022-10-28T20:11:26.165Z,9.69
2022-10-28T20:13:56.002Z,9.70
2022-10-28T20:16:24.785Z,9.50
2022-10-28T20:18:51.811Z,9.13
2022-10-28T20:21:20.497Z,9.63
2022-10-28T20:23:53.752Z,9.66
2022-10-28T20:26:22.917Z,9.24
2022-10-28T20:28:50.397Z,8.90
2022-10-28T20:31:19.807Z,8.95
2022-10-28T20:33:54.793Z,9.02
2022-10-28T20:36:44.109Z,8.79
2022-10-28T20:39:15.396Z,9.21
2022-10-28T20:41:44.040Z,9.02
2022-10-28T20:44:11.185Z,8.87
2022-10-28T20:46:38.487Z,8.81
2022-10-28T20:49:06.474Z,8.86
2022-10-28T20:51:33.856Z,8.43
2022-10-28T20:54:00.993Z,8.88
2022-10-28T20:56:34.751Z,8.94
2022-10-28T20:59:01.904Z,9.20
2022-10-28T21:01:37.442Z,9.18
2022-10-28T21:04:06.845Z,9.02
2022-10-28T21:06:34.665Z,8.86
2022-10-28T21:09:02.001Z,8.54
2022-10-28T21:11:29.059Z,8.82
2022-10-28T21:13:58.697Z,8.90
2022-10-28T21:16:26.996Z,8.88
2022-10-28T21:18:54.432Z,8.92
2022-10-28T21:21:22.732Z,8.89
2022-10-28T21:23:49.894Z,9.05
2022-10-28T21:26:17.355Z,9.02
2022-10-28T21:28:45.222Z,9.08
2022-10-28T21:31:17.234Z,9.06
2022-10-28T21:33:44.556Z,8.77
2022-10-28T21:36:16.240Z,8.77
2022-10-28T21:38:43.784Z,9.00
2022-10-28T21:41:16.455Z,9.06
2022-10-28T21:43:47.878Z,9.06
2022-10-28T21:46:15.899Z,8.88
2022-10-28T21:48:43.364Z,9.06
2022-10-28T21:51:14.826Z,8.79
2022-10-28T21:53:43.914Z,9.07
2022-10-28T21:56:17.996Z,8.79
2022-10-28T21:58:46.972Z,9.08
2022-10-28T22:01:21.011Z,9.07
2022-10-28T22:03:48.034Z,8.96
2022-10-28T22:06:15.009Z,8.81
2022-10-28T22:08:42.091Z,9.09
2022-10-28T22:11:20.588Z,8.81
2022-10-28T22:14:02.562Z,9.06
2022-10-28T22:16:31.485Z,9.00
2022-10-28T22:19:00.540Z,8.73
2022-10-28T22:21:30.518Z,8.51
2022-10-28T22:23:57.612Z,8.66
2022-10-28T22:26:26.975Z,8.25
2022-10-28T22:28:54.084Z,8.50
2022-10-28T22:31:23.667Z,8.60
2022-10-28T22:33:51.033Z,8.49
2022-10-28T22:36:20.293Z,8.53
2022-10-28T22:38:48.059Z,8.68
2022-10-28T22:41:23.701Z,8.64
2022-10-28T22:43:53.158Z,8.30
2022-10-28T22:46:20.676Z,8.39
2022-10-28T22:48:48.449Z,8.60
2022-10-28T22:51:15.922Z,8.77
2022-10-28T22:53:43.269Z,8.74
2022-10-28T22:56:20.226Z,8.71
2022-10-28T22:58:48.243Z,8.64
2022-10-28T23:01:18.084Z,8.67
2022-10-28T23:03:46.776Z,8.84
2022-10-28T23:06:15.290Z,8.45
2022-10-28T23:08:45.260Z,8.51
2022-10-28T23:11:13.410Z,8.31
2022-10-28T23:13:40.574Z,8.15
2022-10-28T23:16:10.905Z,8.12
2022-10-28T23:18:38.465Z,8.50
2022-10-28T23:21:15.709Z,8.55
2022-10-28T23:23:43.347Z,8.44
2022-10-28T23:26:11.581Z,8.45
2022-10-28T23:28:38.939Z,8.39
2022-10-28T23:31:06.858Z,8.08
2022-10-28T23:33:35.226Z,8.57
2022-10-28T23:36:06.684Z,8.56
2022-10-28T23:38:33.707Z,8.29
2022-10-28T23:41:02.964Z,8.46
2022-10-28T23:43:31.087Z,8.47
2022-10-28T23:45:58.784Z,8.59
2022-10-28T23:48:26.975Z,8.56
2022-10-28T23:50:54.431Z,8.59
2022-10-28T23:53:22.309Z,8.68
2022-10-28T23:55:50.700Z,8.52
2022-10-28T23:58:19.143Z,8.47
